Time;durP1;ratioP1;P1;durP2;ratioP2;P2;SDS_P1;SDS_P2;PMS_P1;PMS_P2;Temp;Humidity;BMP_temperature;BMP_pressure;BME280_temperature;BME280_humidity;BME280_pressure;Samples;Min_cycle;Max_cycle;Signal;HPM_P1;HPM_P2
2022/10/05 00:00:44;;;;;;;5.07;1.80;;;19.10;80.70;;;;;;5113258;28;20032;-71
2022/10/05 00:03:10;;;;;;;2.42;1.60;;;19.10;80.70;;;;;;5097036;28;20019;-71
2022/10/05 00:05:36;;;;;;;5.13;2.05;;;19.10;80.70;;;;;;5113120;28;20481;-71
2022/10/05 00:08:10;;;;;;;5.10;2.08;;;19.10;80.70;;;;;;5114374;28;20019;-71
2022/10/05 00:10:37;;;;;;;3.65;1.73;;;19.10;80.70;;;;;;5097290;28;20436;-71
2022/10/05 00:13:05;;;;;;;3.90;1.70;;;19.10;80.80;;;;;;5083522;28;20012;-71
2022/10/05 00:15:31;;;;;;;6.30;2.42;;;19.10;80.80;;;;;;5092881;28;20051;-71
2022/10/05 00:17:57;;;;;;;3.13;1.52;;;19.10;80.70;;;;;;5092812;28;20439;-71
2022/10/05 00:20:24;;;;;;;3.63;1.52;;;19.10;80.80;;;;;;5099917;28;20091;-71
2022/10/05 00:22:57;;;;;;;2.83;1.92;;;19.10;80.80;;;;;;5096127;28;20115;-71
2022/10/05 00:25:23;;;;;;;5.10;1.70;;;19.10;80.80;;;;;;5096902;28;20023;-71
2022/10/05 00:27:56;;;;;;;3.47;1.70;;;19.10;80.80;;;;;;5114104;28;20386;-71
2022/10/05 00:30:22;;;;;;;2.63;1.45;;;19.10;80.80;;;;;;5112067;28;20063;-71
2022/10/05 00:32:48;;;;;;;2.83;1.52;;;19.10;80.80;;;;;;5112935;28;20024;-71
2022/10/05 00:35:14;;;;;;;7.35;1.60;;;19.10;81.90;;;;;;5095602;28;20023;-71
2022/10/05 00:37:40;;;;;;;4.22;1.70;;;19.00;80.80;;;;;;5113563;28;20024;-71
2022/10/05 00:40:29;;;;;;;1.88;1.60;;;19.00;80.80;;;;;;5113932;28;20020;-71
2022/10/05 00:43:08;;;;;;;7.50;2.08;;;19.10;80.90;;;;;;5034372;28;20091;-71
2022/10/05 00:45:42;;;;;;;3.92;1.90;;;19.00;80.80;;;;;;5035712;28;20048;-71
2022/10/05 00:48:22;;;;;;;3.25;1.83;;;19.00;80.80;;;;;;5034946;28;20044;-71
2022/10/05 00:51:03;;;;;;;5.93;1.50;;;19.10;80.90;;;;;;5034825;28;20040;-71
2022/10/05 00:53:38;;;;;;;4.13;1.70;;;19.10;80.90;;;;;;5050866;28;20057;-71
2022/10/05 00:56:31;;;;;;;3.53;2.10;;;19.10;81.00;;;;;;5034369;28;20029;-71
2022/10/05 00:59:35;;;;;;;2.97;1.70;;;19.10;80.90;;;;;;5050747;28;20029;-71
2022/10/05 01:02:12;;;;;;;6.80;2.60;;;19.10;80.90;;;;;;5050703;28;20494;-71
2022/10/05 01:04:44;;;;;;;3.45;1.70;;;19.10;80.90;;;;;;5050327;28;20459;-71
2022/10/05 01:07:33;;;;;;;3.70;1.80;;;19.10;80.90;;;;;;5034089;28;20040;-71
2022/10/05 01:10:17;;;;;;;3.13;1.38;;;19.10;80.90;;;;;;5036445;28;20475;-71
2022/10/05 01:13:14;;;;;;;5.57;1.55;;;19.10;80.80;;;;;;5014315;28;20041;-71
2022/10/05 01:15:46;;;;;;;6.70;1.80;;;19.10;80.80;;;;;;5010768;28;20056;-71
2022/10/05 01:18:23;;;;;;;;;;;19.10;81.80;;;;;;5011064;28;20396;-71
2022/10/05 01:21:04;;;;;;;2.83;1.45;;;19.10;80.70;;;;;;5084119;28;20415;-71
2022/10/05 01:23:57;;;;;;;4.82;2.15;;;19.10;80.80;;;;;;5112112;28;20119;-71
2022/10/05 01:26:44;;;;;;;3.25;1.50;;;19.10;80.80;;;;;;5113033;28;20482;-72
2022/10/05 01:29:31;;;;;;;3.85;1.63;;;19.10;80.80;;;;;;5111843;28;20027;-70
2022/10/05 01:32:30;;;;;;;5.15;2.20;;;19.10;80.70;;;;;;5095905;28;20403;-70
2022/10/05 01:35:01;;;;;;;8.07;2.00;;;19.10;80.60;;;;;;5096529;28;20094;-70
2022/10/05 01:37:33;;;;;;;3.92;1.85;;;19.10;80.80;;;;;;5112943;28;20055;-70
2022/10/05 01:40:02;;;;;;;2.73;1.63;;;19.10;80.70;;;;;;5112829;28;20390;-70
2022/10/05 01:42:50;;;;;;;5.38;2.03;;;19.10;80.80;;;;;;5112656;28;20024;-70
2022/10/05 01:45:41;;;;;;;4.53;1.88;;;19.10;80.80;;;;;;5112769;28;20028;-70
2022/10/05 01:48:15;;;;;;;5.10;1.67;;;19.10;80.80;;;;;;5111614;28;20016;-70
2022/10/05 01:50:44;;;;;;;4.57;1.95;;;19.00;80.80;;;;;;5112707;28;20112;-70
2022/10/05 01:53:45;;;;;;;5.88;1.70;;;19.10;81.00;;;;;;5112527;28;20124;-70
2022/10/05 01:56:28;;;;;;;5.25;1.85;;;19.10;80.90;;;;;;5111433;28;20039;-70
2022/10/05 01:59:21;;;;;;;4.32;1.60;;;19.10;81.00;;;;;;5112640;28;20020;-70
2022/10/05 02:01:59;;;;;;;4.80;1.70;;;19.10;80.90;;;;;;5112434;28;20028;-70
2022/10/05 02:04:45;;;;;;;3.92;1.70;;;19.10;81.00;;;;;;5096111;28;20124;-70
2022/10/05 02:07:45;;;;;;;5.57;1.90;;;19.10;81.00;;;;;;5111227;28;20048;-70
2022/10/05 02:10:14;;;;;;;4.00;1.65;;;19.10;81.00;;;;;;5094271;28;20056;-70
2022/10/05 02:12:39;;;;;;;3.72;1.70;;;19.10;81.10;;;;;;5101609;28;20300;-70
2022/10/05 02:15:14;;;;;;;3.20;1.73;;;19.10;81.10;;;;;;5090886;28;20108;-70
2022/10/05 02:17:47;;;;;;;3.05;1.45;;;19.10;81.10;;;;;;5090731;28;20107;-70
2022/10/05 02:20:16;;;;;;;3.55;1.70;;;19.10;81.00;;;;;;5097178;28;20039;-70
2022/10/05 02:22:47;;;;;;;4.60;1.88;;;19.10;81.10;;;;;;5094559;28;20477;-70
2022/10/05 02:25:21;;;;;;;4.05;1.60;;;19.10;81.10;;;;;;5111284;28;20458;-70
2022/10/05 02:27:55;;;;;;;2.83;1.35;;;19.10;81.10;;;;;;5095187;28;20020;-70
2022/10/05 02:30:21;;;;;;;4.00;1.90;;;19.10;81.10;;;;;;5111023;28;20438;-70
2022/10/05 02:32:49;;;;;;;6.80;1.98;;;19.10;81.20;;;;;;5111202;28;20106;-70
2022/10/05 02:35:16;;;;;;;5.78;1.60;;;19.10;81.20;;;;;;5110116;28;20498;-70
2022/10/05 02:38:33;;;;;;;3.50;1.63;;;19.10;81.10;;;;;;5071983;28;20028;-70
2022/10/05 02:41:11;;;;;;;4.53;1.50;;;19.10;81.10;;;;;;5048127;28;20037;-70
2022/10/05 02:43:51;;;;;;;6.40;1.70;;;19.10;81.20;;;;;;5031482;28;20102;-70
2022/10/05 02:46:40;;;;;;;3.30;1.75;;;19.10;81.20;;;;;;5047620;28;20391;-71
2022/10/05 02:49:36;;;;;;;3.60;1.80;;;19.10;81.10;;;;;;5048356;28;20543;-71
2022/10/05 02:52:09;;;;;;;6.85;1.83;;;19.10;81.10;;;;;;5048189;28;20084;-70
2022/10/05 02:54:51;;;;;;;2.00;1.50;;;19.10;81.10;;;;;;5050857;28;20087;-71
2022/10/05 02:57:19;;;;;;;5.47;1.90;;;19.00;81.10;;;;;;5036331;28;20507;-70
2022/10/05 02:59:59;;;;;;;3.28;1.60;;;19.10;81.20;;;;;;5051994;28;20466;-71
2022/10/05 03:02:47;;;;;;;4.70;1.80;;;19.00;81.10;;;;;;5036277;28;20431;-70
2022/10/05 03:05:45;;;;;;;4.75;1.70;;;19.10;81.20;;;;;;5036331;28;20108;-70
2022/10/05 03:08:21;;;;;;;15.80;2.08;;;19.10;81.20;;;;;;5040283;28;20033;-70
2022/10/05 03:11:18;;;;;;;6.10;1.77;;;19.00;81.20;;;;;;5036190;28;20037;-70
2022/10/05 03:13:50;;;;;;;1.88;1.52;;;19.00;81.20;;;;;;5062320;28;20036;-70
2022/10/05 03:16:34;;;;;;;9.95;1.50;;;19.10;81.20;;;;;;5083849;28;20090;-70
2022/10/05 03:19:23;;;;;;;3.38;1.70;;;19.00;81.20;;;;;;5094819;28;20111;-70
2022/10/05 03:22:17;;;;;;;2.95;1.75;;;19.00;81.20;;;;;;5114365;28;20031;-70
2022/10/05 03:25:06;;;;;;;2.80;1.40;;;19.00;81.20;;;;;;5114202;28;20028;-70
2022/10/05 03:28:01;;;;;;;2.40;1.45;;;19.00;81.30;;;;;;5104253;28;20035;-70
2022/10/05 03:30:28;;;;;;;3.53;1.85;;;19.00;81.20;;;;;;5109429;28;20046;-70
2022/10/05 03:33:06;;;;;;;3.78;1.55;;;19.00;81.20;;;;;;5097260;28;20051;-70
2022/10/05 03:36:11;;;;;;;2.75;1.50;;;19.00;81.20;;;;;;5115259;28;20592;-70
2022/10/05 03:38:36;;;;;;;3.95;2.10;;;19.00;81.20;;;;;;5071264;28;20019;-70
2022/10/05 03:41:14;;;;;;;7.05;1.70;;;19.00;81.20;;;;;;5072845;28;20020;-70
2022/10/05 03:43:58;;;;;;;9.40;1.58;;;19.00;81.30;;;;;;5071461;28;20071;-70
2022/10/05 03:46:46;;;;;;;1.88;1.35;;;19.00;81.30;;;;;;5092733;28;20027;-70
2022/10/05 03:49:49;;;;;;;4.75;1.70;;;19.00;81.40;;;;;;5091889;28;20020;-70
2022/10/05 03:52:26;;;;;;;1.90;1.40;;;19.00;81.30;;;;;;5092735;28;20079;-70
2022/10/05 03:55:22;;;;;;;7.53;1.70;;;19.00;81.30;;;;;;5090858;28;20016;-70
2022/10/05 03:57:49;;;;;;;6.82;1.60;;;19.10;81.40;;;;;;5092215;28;20024;-70
2022/10/05 04:00:22;;;;;;;4.70;1.58;;;19.00;81.40;;;;;;5091498;28;20034;-70
2022/10/05 04:02:57;;;;;;;3.10;1.70;;;19.00;81.40;;;;;;5091451;28;20040;-70
2022/10/05 04:05:34;;;;;;;2.25;1.52;;;19.10;81.50;;;;;;5091545;28;20464;-70
2022/10/05 04:08:27;;;;;;;6.07;1.45;;;19.00;81.40;;;;;;5092445;28;20419;-70
2022/10/05 04:10:57;;;;;;;1.75;1.35;;;19.00;81.50;;;;;;5092175;28;20027;-70
2022/10/05 04:13:28;;;;;;;6.35;1.40;;;19.00;81.50;;;;;;5059463;28;20032;-70
2022/10/05 04:16:01;;;;;;;3.20;1.70;;;19.00;81.50;;;;;;5070900;28;20069;-70
2022/10/05 04:18:36;;;;;;;3.97;1.27;;;19.00;81.50;;;;;;5071118;28;20025;-70
2022/10/05 04:21:10;;;;;;;2.65;1.52;;;19.00;81.50;;;;;;5077745;28;20052;-70
2022/10/05 04:24:06;;;;;;;2.38;1.30;;;19.00;81.50;;;;;;5073699;28;20027;-70
2022/10/05 04:26:50;;;;;;;2.95;1.50;;;19.00;81.50;;;;;;5091075;28;20085;-70
2022/10/05 04:29:24;;;;;;;3.30;1.92;;;19.00;81.50;;;;;;5075165;28;20394;-70
2022/10/05 04:32:14;;;;;;;2.42;1.70;;;19.00;81.50;;;;;;5092053;28;20035;-70
2022/10/05 04:34:58;;;;;;;1.98;1.40;;;19.00;81.70;;;;;;5091923;28;20486;-70
2022/10/05 04:37:38;;;;;;;4.65;1.45;;;19.00;81.50;;;;;;5091836;28;20111;-70
2022/10/05 04:40:26;;;;;;;2.03;1.58;;;19.00;81.50;;;;;;5091644;28;20012;-70
2022/10/05 04:43:03;;;;;;;3.05;1.58;;;19.00;81.50;;;;;;5090485;28;20023;-70
2022/10/05 04:45:43;;;;;;;4.57;1.52;;;19.00;82.50;;;;;;5090591;28;20142;-70
2022/10/05 04:48:51;;;;;;;5.20;1.42;;;19.00;81.50;;;;;;5074483;28;20045;-70
2022/10/05 04:51:21;;;;;;;3.35;1.83;;;19.00;81.50;;;;;;5029221;28;20400;-70
2022/10/05 04:54:04;;;;;;;2.72;1.10;;;19.00;81.50;;;;;;5046416;28;20029;-70
2022/10/05 04:56:41;;;;;;;2.53;1.33;;;19.00;81.50;;;;;;5047945;28;20041;-70
2022/10/05 04:59:32;;;;;;;2.42;1.60;;;19.00;81.60;;;;;;5033110;28;20021;-70
2022/10/05 05:02:25;;;;;;;4.13;1.50;;;19.00;81.60;;;;;;5049438;28;20659;-70
2022/10/05 05:05:21;;;;;;;3.25;1.63;;;19.00;81.50;;;;;;5033408;28;20083;-70
2022/10/05 05:07:59;;;;;;;3.40;1.27;;;19.00;81.60;;;;;;5050082;28;20037;-70
2022/10/05 05:10:33;;;;;;;5.68;1.50;;;19.00;81.70;;;;;;5049529;28;20146;-70
2022/10/05 05:13:20;;;;;;;2.60;1.38;;;19.00;81.70;;;;;;5038672;28;20025;-70
2022/10/05 05:16:01;;;;;;;2.42;1.20;;;19.00;81.60;;;;;;5029643;28;20455;-70
2022/10/05 05:18:48;;;;;;;2.90;1.63;;;19.00;81.70;;;;;;5044845;28;20373;-70
2022/10/05 05:21:32;;;;;;;2.78;1.55;;;19.00;81.70;;;;;;5044512;28;21016;-70
2022/10/05 05:24:32;;;;;;;2.33;1.50;;;19.00;81.70;;;;;;5060075;28;20017;-70
2022/10/05 05:27:29;;;;;;;3.40;1.73;;;19.00;81.70;;;;;;5064033;28;20024;-70
2022/10/05 05:30:25;;;;;;;2.13;1.20;;;19.00;81.80;;;;;;5086744;28;20030;-71
2022/10/05 05:33:14;;;;;;;2.00;1.30;;;19.00;81.90;;;;;;5084468;28;20133;-71
2022/10/05 05:35:48;;;;;;;2.30;1.17;;;19.00;79.20;;;;;;5085674;28;20042;-71
2022/10/05 05:38:33;;;;;;;3.15;1.60;;;19.00;79.10;;;;;;5084673;28;20093;-71
2022/10/05 05:41:32;;;;;;;3.35;1.25;;;18.90;78.90;;;;;;5082235;28;20015;-72
2022/10/05 05:44:34;;;;;;;7.35;2.28;;;18.90;78.70;;;;;;5075909;28;20039;-70
2022/10/05 05:47:03;;;;;;;2.72;1.40;;;18.90;78.80;;;;;;5084794;28;20059;-72
2022/10/05 05:49:39;;;;;;;4.43;1.60;;;18.90;78.70;;;;;;5083675;28;20482;-71
2022/10/05 05:52:10;;;;;;;3.22;1.50;;;18.90;78.90;;;;;;5081351;28;20407;-72
2022/10/05 05:54:41;;;;;;;2.17;1.23;;;18.90;78.90;;;;;;5066342;28;20479;-71
2022/10/05 05:57:22;;;;;;;2.90;1.27;;;18.90;78.90;;;;;;5081092;28;20032;-71
2022/10/05 06:00:09;;;;;;;3.50;1.20;;;18.80;78.70;;;;;;5066073;28;20012;-72
2022/10/05 06:02:54;;;;;;;1.75;1.27;;;18.90;78.80;;;;;;5084592;28;20031;-71
2022/10/05 06:05:30;;;;;;;3.90;1.20;;;18.80;78.70;;;;;;5082742;28;20147;-71
2022/10/05 06:07:57;;;;;;;4.38;1.30;;;18.80;78.60;;;;;;5085000;28;20056;-71
2022/10/05 06:10:55;;;;;;;3.03;1.58;;;18.80;78.70;;;;;;5084841;28;20055;-71
2022/10/05 06:13:27;;;;;;;2.35;1.10;;;18.80;78.60;;;;;;5042852;28;20068;-70
2022/10/05 06:15:59;;;;;;;9.32;1.30;;;18.80;79.70;;;;;;5030618;28;20037;-71
2022/10/05 06:18:25;;;;;;;2.50;1.13;;;18.80;78.60;;;;;;5029803;28;20030;-71
2022/10/05 06:20:52;;;;;;;3.05;1.33;;;18.80;78.60;;;;;;5029847;28;20025;-71
2022/10/05 06:23:28;;;;;;;2.90;1.42;;;18.80;78.60;;;;;;5040873;28;20515;-70
2022/10/05 06:25:54;;;;;;;1.20;1.10;;;18.80;78.60;;;;;;5030545;28;20017;-70
2022/10/05 06:28:19;;;;;;;1.90;1.23;;;18.70;78.50;;;;;;5042219;28;20658;-70
2022/10/05 06:30:54;;;;;;;1.08;0.95;;;18.80;78.60;;;;;;5033907;28;20087;-70
2022/10/05 06:33:46;;;;;;;3.05;1.25;;;18.80;78.60;;;;;;5049613;28;20141;-70
2022/10/05 06:36:14;;;;;;;1.95;1.23;;;18.80;78.60;;;;;;5042057;28;20037;-70
2022/10/05 06:38:51;;;;;;;1.92;1.25;;;18.80;78.50;;;;;;5031699;28;20033;-70
2022/10/05 06:41:29;;;;;;;1.10;1.00;;;18.70;78.50;;;;;;5031449;28;20394;-70
2022/10/05 06:44:15;;;;;;;1.75;0.90;;;18.70;78.50;;;;;;5033197;28;20028;-80
2022/10/05 06:46:46;;;;;;;3.15;1.27;;;18.70;78.40;;;;;;5018656;28;20036;-78
2022/10/05 06:49:20;;;;;;;4.35;1.30;;;18.80;78.60;;;;;;5049497;28;20044;-78
2022/10/05 06:51:50;;;;;;;9.88;2.88;;;18.70;78.60;;;;;;5074714;28;20401;-78
2022/10/05 06:54:47;;;;;;;7.93;1.58;;;18.70;78.70;;;;;;5073852;28;20024;-78
2022/10/05 06:57:31;;;;;;;10.27;2.10;;;18.70;78.70;;;;;;5058754;28;20020;-78
2022/10/05 07:00:06;;;;;;;9.73;3.08;;;18.70;78.70;;;;;;5081868;28;20028;-78
2022/10/05 07:02:43;;;;;;;14.13;2.53;;;18.70;78.80;;;;;;5088846;28;20024;-78
2022/10/05 07:05:48;;;;;;;15.82;2.90;;;18.70;78.80;;;;;;5100672;28;20458;-78
2022/10/05 07:08:31;;;;;;;25.52;4.70;;;18.70;78.90;;;;;;5019564;28;20074;-78
2022/10/05 07:11:02;;;;;;;28.67;3.85;;;18.70;79.10;;;;;;5032867;28;20091;-78
2022/10/05 07:13:28;;;;;;;20.67;4.05;;;18.70;79.10;;;;;;5015990;28;20428;-78
2022/10/05 07:16:29;;;;;;;16.00;3.28;;;18.70;79.20;;;;;;5031283;28;20026;-78
2022/10/05 07:19:14;;;;;;;14.88;3.08;;;18.70;79.10;;;;;;5002839;28;20030;-78
2022/10/05 07:22:33;;;;;;;18.17;4.10;;;18.70;79.10;;;;;;5000594;28;20479;-78
2022/10/05 07:25:00;;;;;;;16.85;3.55;;;18.70;79.20;;;;;;5012874;28;20045;-78
2022/10/05 07:27:32;;;;;;;18.92;4.03;;;18.70;79.20;;;;;;5012719;28;20081;-78
2022/10/05 07:30:00;;;;;;;21.08;4.18;;;18.70;79.30;;;;;;5012591;28;20026;-78
2022/10/05 07:32:35;;;;;;;16.23;3.33;;;18.70;79.20;;;;;;5012520;28;20030;-78
2022/10/05 07:38:06;;;;;;;16.15;3.47;;;18.70;79.20;;;;;;5018363;28;20039;-78
2022/10/05 07:40:32;;;;;;;7.70;3.03;;;18.70;79.20;;;;;;5015796;28;20529;-78
2022/10/05 07:43:31;;;;;;;15.38;3.67;;;18.70;79.20;;;;;;5032311;28;20109;-78
2022/10/05 07:46:15;;;;;;;12.65;3.40;;;18.70;79.20;;;;;;5079685;28;20062;-78
2022/10/05 07:49:08;;;;;;;14.82;4.40;;;18.70;79.20;;;;;;5076497;28;20036;-78
2022/10/05 07:51:35;;;;;;;;;;;18.70;79.20;;;;;;5092401;28;20055;-78
2022/10/05 07:54:22;;;;;;;12.68;3.47;;;18.60;79.20;;;;;;5092367;28;19914;-79
2022/10/05 07:57:18;;;;;;;20.52;3.88;;;18.60;79.20;;;;;;5092175;28;20102;-78
2022/10/05 07:59:56;;;;;;;18.85;4.55;;;18.60;79.20;;;;;;5106015;28;20111;-78
2022/10/05 08:02:40;;;;;;;14.95;3.53;;;18.60;79.20;;;;;;5098025;28;20433;-78
2022/10/05 08:05:25;;;;;;;10.57;3.42;;;18.60;79.20;;;;;;5077446;28;20020;-78
2022/10/05 08:07:55;;;;;;;14.95;3.88;;;18.60;79.20;;;;;;5095215;28;20028;-78
2022/10/05 08:10:46;;;;;;;13.73;3.28;;;18.60;79.20;;;;;;5079452;28;20053;-78
2022/10/05 08:13:20;;;;;;;11.15;3.33;;;18.60;79.10;;;;;;5114311;28;20035;-78
2022/10/05 08:15:49;;;;;;;17.15;3.97;;;18.60;79.20;;;;;;5113006;28;20019;-78
2022/10/05 08:18:18;;;;;;;12.30;3.33;;;18.60;79.20;;;;;;5096379;28;20437;-78
2022/10/05 08:20:49;;;;;;;9.48;2.75;;;18.60;79.20;;;;;;5114373;28;20489;-78
2022/10/05 08:23:27;;;;;;;14.45;3.90;;;18.60;79.10;;;;;;5096500;28;20016;-78
2022/10/05 08:26:01;;;;;;;14.77;3.90;;;18.60;79.10;;;;;;5114111;28;20019;-78
2022/10/05 08:28:30;;;;;;;10.35;3.22;;;18.60;79.10;;;;;;5112695;28;20073;-78
2022/10/05 08:31:12;;;;;;;15.48;3.63;;;18.60;79.10;;;;;;5113120;28;20019;-78
2022/10/05 08:33:53;;;;;;;11.50;3.35;;;18.60;79.10;;;;;;5097256;28;20473;-78
2022/10/05 08:36:39;;;;;;;11.57;3.15;;;18.60;79.10;;;;;;5112632;28;20431;-78
2022/10/05 08:39:08;;;;;;;11.40;3.30;;;18.60;79.10;;;;;;5098266;28;20028;-78
2022/10/05 08:41:37;;;;;;;10.52;3.40;;;18.60;79.00;;;;;;5096015;28;20057;-78
2022/10/05 08:44:28;;;;;;;13.63;3.00;;;18.60;79.00;;;;;;5113673;28;20073;-78
2022/10/05 08:47:04;;;;;;;9.73;3.17;;;18.60;79.10;;;;;;5113603;28;20098;-78
2022/10/05 08:49:36;;;;;;;10.93;3.35;;;18.50;79.00;;;;;;5112618;28;20096;-78
2022/10/05 08:52:46;;;;;;;9.32;2.75;;;18.60;79.00;;;;;;5112933;28;20052;-78
2022/10/05 08:55:32;;;;;;;13.18;3.58;;;18.50;79.00;;;;;;5050696;28;20041;-78
2022/10/05 08:58:12;;;;;;;9.77;3.35;;;18.60;79.00;;;;;;5034218;28;20041;-78
2022/10/05 09:00:40;;;;;;;10.88;2.90;;;18.60;79.10;;;;;;5047386;28;20116;-78
2022/10/05 09:03:20;;;;;;;13.88;3.13;;;18.60;79.00;;;;;;5010662;28;20048;-78
2022/10/05 09:06:00;;;;;;;10.77;3.22;;;18.50;79.00;;;;;;5011019;28;20026;-78
2022/10/05 09:08:35;;;;;;;13.45;3.60;;;18.60;79.10;;;;;;5025218;28;20113;-78
2022/10/05 09:11:40;;;;;;;12.07;3.42;;;18.50;79.10;;;;;;5050439;28;20431;-78
2022/10/05 09:14:32;;;;;;;9.05;3.03;;;18.50;79.00;;;;;;5034509;28;20025;-78
2022/10/05 09:17:13;;;;;;;8.68;2.60;;;18.50;79.00;;;;;;5033565;28;20037;-78
2022/10/05 09:19:44;;;;;;;10.45;2.90;;;18.50;79.00;;;;;;5033567;28;20021;-78
2022/10/05 09:22:31;;;;;;;9.32;2.85;;;18.50;79.00;;;;;;5050346;28;20040;-78
2022/10/05 09:25:17;;;;;;;11.15;3.40;;;18.50;79.00;;;;;;5050498;28;20048;-78
2022/10/05 09:27:51;;;;;;;8.73;2.70;;;18.50;79.00;;;;;;4990840;28;20043;-78
2022/10/05 09:30:29;;;;;;;9.30;2.42;;;18.50;78.90;;;;;;5031878;28;20132;-78
2022/10/05 09:33:12;;;;;;;7.85;2.55;;;18.50;78.90;;;;;;5048920;28;20415;-78
2022/10/05 09:36:04;;;;;;;6.38;2.55;;;18.50;78.90;;;;;;5050049;28;20488;-78
2022/10/05 09:38:49;;;;;;;8.98;2.50;;;18.50;78.80;;;;;;5049710;28;20063;-78
2022/10/05 09:41:33;;;;;;;11.23;2.63;;;18.50;78.80;;;;;;5050261;28;20112;-78
2022/10/05 09:44:11;;;;;;;8.98;2.00;;;18.50;78.80;;;;;;5050242;28;20115;-78
2022/10/05 09:46:52;;;;;;;8.73;2.72;;;18.50;78.80;;;;;;5049844;28;20040;-78
2022/10/05 09:49:39;;;;;;;7.97;2.88;;;18.50;78.80;;;;;;5050071;28;20036;-78
2022/10/05 09:52:12;;;;;;;10.45;2.75;;;18.50;78.80;;;;;;5050066;28;20041;-78
2022/10/05 09:55:05;;;;;;;8.85;2.30;;;18.50;78.80;;;;;;5050053;28;20029;-78
2022/10/05 09:57:49;;;;;;;6.68;2.22;;;18.50;78.70;;;;;;5049940;28;20048;-78
2022/10/05 10:00:31;;;;;;;11.68;2.90;;;18.50;78.80;;;;;;5049844;28;20039;-78
2022/10/05 10:03:27;;;;;;;6.47;2.20;;;18.50;78.80;;;;;;5010607;28;20454;-78
2022/10/05 10:06:03;;;;;;;8.75;3.10;;;18.50;78.80;;;;;;5071810;28;20033;-78
2022/10/05 10:08:53;;;;;;;7.38;2.00;;;18.50;78.80;;;;;;5090485;28;20099;-78
2022/10/05 10:11:40;;;;;;;5.15;2.10;;;18.50;78.80;;;;;;5117005;28;20023;-78
2022/10/05 10:14:24;;;;;;;9.93;2.53;;;18.50;78.80;;;;;;5100697;28;20027;-78
2022/10/05 10:17:05;;;;;;;6.35;2.25;;;18.50;78.80;;;;;;5116643;28;20028;-78
2022/10/05 10:19:43;;;;;;;10.45;2.45;;;18.50;78.80;;;;;;5115489;28;20501;-78
2022/10/05 10:22:30;;;;;;;6.70;2.20;;;18.50;78.80;;;;;;5116638;28;20095;-78
2022/10/05 10:24:58;;;;;;;7.00;2.35;;;18.50;78.80;;;;;;5116540;28;20028;-78
2022/10/05 10:27:43;;;;;;;7.45;2.40;;;18.50;78.80;;;;;;5116374;28;20028;-78
2022/10/05 10:30:46;;;;;;;6.13;2.40;;;18.50;78.90;;;;;;5115049;28;20028;-78
2022/10/05 10:33:49;;;;;;;10.50;3.05;;;18.50;78.80;;;;;;5116322;28;20026;-78
2022/10/05 10:36:31;;;;;;;9.15;2.05;;;18.50;78.90;;;;;;5116353;28;20024;-78
2022/10/05 10:39:09;;;;;;;4.28;2.30;;;18.50;78.90;;;;;;5114966;28;20020;-78
2022/10/05 10:42:01;;;;;;;4.85;1.80;;;18.50;78.90;;;;;;5115110;28;20031;-78
2022/10/05 10:44:42;;;;;;;7.97;1.92;;;18.50;78.90;;;;;;5100854;28;20375;-78
2022/10/05 10:47:22;;;;;;;4.40;1.80;;;18.50;78.90;;;;;;5114894;28;20440;-78
2022/10/05 10:49:56;;;;;;;7.90;2.70;;;18.50;78.90;;;;;;5114837;28;20107;-78
2022/10/05 10:52:28;;;;;;;8.80;2.05;;;18.50;78.90;;;;;;5115865;28;20104;-78
2022/10/05 10:55:16;;;;;;;5.70;1.88;;;18.50;78.90;;;;;;5116000;28;20288;-78
2022/10/05 10:57:52;;;;;;;6.93;2.00;;;18.50;78.90;;;;;;5114373;28;20385;-78
2022/10/05 11:00:21;;;;;;;5.35;1.98;;;18.50;78.90;;;;;;5114813;28;20034;-78
2022/10/05 11:03:02;;;;;;;5.10;2.20;;;18.50;79.00;;;;;;5094549;28;20028;-78
2022/10/05 11:05:46;;;;;;;7.03;1.90;;;18.50;78.90;;;;;;5078229;28;20020;-78
2022/10/05 11:08:34;;;;;;;3.65;1.83;;;18.50;79.00;;;;;;5100534;28;20027;-78
2022/10/05 11:11:26;;;;;;;2.83;1.80;;;18.50;79.00;;;;;;5106197;28;20036;-78
2022/10/05 11:14:29;;;;;;;6.05;1.80;;;18.50;78.90;;;;;;5115382;28;20031;-78
2022/10/05 11:17:00;;;;;;;;;;;18.50;78.90;;;;;;5115942;28;20028;-78
2022/10/05 11:19:37;;;;;;;5.85;1.90;;;18.40;78.90;;;;;;5114301;28;20380;-78
2022/10/05 11:22:28;;;;;;;3.78;1.85;;;18.50;79.00;;;;;;5115362;28;20501;-78
2022/10/05 11:25:24;;;;;;;4.95;2.20;;;18.50;79.00;;;;;;5098185;28;20096;-78
2022/10/05 11:28:14;;;;;;;8.00;2.35;;;18.50;79.00;;;;;;5114933;28;20080;-78
2022/10/05 11:30:54;;;;;;;6.32;1.80;;;18.50;79.00;;;;;;5113910;28;20058;-78
2022/10/05 11:33:35;;;;;;;3.95;2.00;;;18.40;78.90;;;;;;5115141;28;20024;-78
2022/10/05 11:36:09;;;;;;;5.05;1.60;;;18.50;79.00;;;;;;5115122;28;20027;-78
2022/10/05 11:38:51;;;;;;;4.40;1.73;;;18.40;79.00;;;;;;5114840;28;20054;-78
2022/10/05 11:41:37;;;;;;;2.95;1.58;;;18.40;79.00;;;;;;5113813;28;20020;-78
2022/10/05 11:44:24;;;;;;;4.45;2.15;;;18.50;79.10;;;;;;5114969;28;20043;-78
2022/10/05 11:46:52;;;;;;;4.53;1.80;;;18.40;79.00;;;;;;5114950;28;20027;-78
2022/10/05 11:49:25;;;;;;;3.88;1.50;;;18.50;79.10;;;;;;5114823;28;20393;-78
2022/10/05 11:52:23;;;;;;;4.93;1.60;;;18.40;79.00;;;;;;5113491;28;20645;-79
2022/10/05 11:55:02;;;;;;;5.15;1.52;;;18.50;79.10;;;;;;5106357;28;20039;-78
2022/10/05 11:57:36;;;;;;;4.82;1.83;;;18.50;79.10;;;;;;5096987;28;20030;-78
2022/10/05 12:00:13;;;;;;;5.78;1.52;;;18.40;79.00;;;;;;5113632;28;20035;-78
2022/10/05 12:03:00;;;;;;;2.83;1.17;;;18.40;79.00;;;;;;5094672;28;20032;-78
2022/10/05 12:05:51;;;;;;;5.07;1.83;;;18.40;79.00;;;;;;5093384;28;20024;-78
2022/10/05 12:08:41;;;;;;;3.00;1.50;;;18.50;79.10;;;;;;5100064;28;20027;-78
2022/10/05 12:11:10;;;;;;;3.38;1.60;;;18.40;79.00;;;;;;5113178;28;20019;-78
2022/10/05 12:13:46;;;;;;;2.90;1.48;;;18.40;79.10;;;;;;5114400;28;20073;-78
2022/10/05 12:16:28;;;;;;;4.55;1.70;;;18.40;79.10;;;;;;5113302;28;20554;-78
2022/10/05 12:19:11;;;;;;;3.90;1.63;;;18.40;79.10;;;;;;5113157;28;20015;-78
2022/10/05 12:21:55;;;;;;;5.28;1.50;;;18.40;79.20;;;;;;5114308;28;20015;-78
2022/10/05 12:24:41;;;;;;;4.10;1.30;;;18.50;79.20;;;;;;5114207;28;20019;-78
2022/10/05 12:27:16;;;;;;;2.78;1.55;;;18.40;79.20;;;;;;5112070;28;20073;-78
2022/10/05 12:29:55;;;;;;;3.80;1.42;;;18.40;79.20;;;;;;5096467;28;20152;-78
2022/10/05 12:32:38;;;;;;;2.38;1.40;;;18.40;79.20;;;;;;5113015;28;20486;-78
2022/10/05 12:35:07;;;;;;;;;;;18.40;79.20;;;;;;5096612;28;20019;-78
2022/10/05 12:37:42;;;;;;;2.92;1.40;;;18.40;79.20;;;;;;5113896;28;19919;-78
2022/10/05 12:40:13;;;;;;;4.75;1.70;;;18.40;79.20;;;;;;5112585;28;20020;-78
2022/10/05 12:42:55;;;;;;;3.40;1.40;;;18.40;79.20;;;;;;5113895;28;20124;-78
2022/10/05 12:45:42;;;;;;;3.65;1.70;;;18.40;79.20;;;;;;5112627;28;20055;-78
2022/10/05 12:48:26;;;;;;;3.00;1.27;;;18.40;79.20;;;;;;5112725;28;20490;-78
2022/10/05 12:51:13;;;;;;;3.72;1.30;;;18.40;79.20;;;;;;5113554;28;20028;-78
2022/10/05 12:53:42;;;;;;;2.88;1.30;;;18.40;79.20;;;;;;5113337;28;20035;-78
2022/10/05 12:56:29;;;;;;;5.35;1.60;;;18.40;79.30;;;;;;5113623;28;20028;-78
2022/10/05 12:59:27;;;;;;;3.65;1.52;;;18.40;79.30;;;;;;5112150;28;20397;-78
2022/10/05 13:02:11;;;;;;;3.28;1.60;;;18.40;79.30;;;;;;5099826;28;20020;-78
2022/10/05 13:04:43;;;;;;;3.60;1.63;;;18.40;79.30;;;;;;5093093;28;20205;-78
2022/10/05 13:07:18;;;;;;;2.25;1.35;;;18.40;79.30;;;;;;5091964;28;20020;-78
2022/10/05 13:09:52;;;;;;;2.85;1.50;;;18.40;79.30;;;;;;5110735;28;20020;-78
2022/10/05 13:12:28;;;;;;;3.53;1.60;;;18.40;79.30;;;;;;5113425;28;20031;-78
2022/10/05 13:15:39;;;;;;;2.85;1.30;;;18.40;79.30;;;;;;5096298;28;20019;-78
2022/10/05 13:18:27;;;;;;;3.97;1.40;;;18.40;79.30;;;;;;5050182;28;20044;-78
2022/10/05 13:21:27;;;;;;;3.03;1.38;;;18.40;79.30;;;;;;5035774;28;20438;-78
2022/10/05 13:24:10;;;;;;;3.83;1.48;;;18.40;79.30;;;;;;5008736;28;20502;-78
2022/10/05 13:26:42;;;;;;;2.05;1.30;;;18.40;79.30;;;;;;5033757;28;20021;-78
2022/10/05 13:29:12;;;;;;;3.47;1.63;;;18.40;79.30;;;;;;5034311;28;20139;-78
2022/10/05 13:32:02;;;;;;;4.38;1.35;;;18.40;79.30;;;;;;5033508;28;20503;-78
2022/10/05 13:34:39;;;;;;;3.42;1.17;;;18.40;79.30;;;;;;5033816;28;20029;-78
2022/10/05 13:37:37;;;;;;;4.13;1.60;;;18.40;80.30;;;;;;5033387;28;20025;-78
2022/10/05 13:40:18;;;;;;;3.70;1.40;;;18.40;79.30;;;;;;5050025;28;20032;-78
2022/10/05 13:42:58;;;;;;;2.22;1.30;;;18.40;79.30;;;;;;5033605;28;20530;-78
2022/10/05 13:45:29;;;;;;;4.78;1.02;;;18.40;79.30;;;;;;5034887;28;20523;-78
2022/10/05 13:48:16;;;;;;;3.17;1.63;;;18.40;79.30;;;;;;5033480;28;20029;-78
2022/10/05 13:51:14;;;;;;;2.25;1.30;;;18.40;79.30;;;;;;5050035;28;20518;-78
2022/10/05 13:54:09;;;;;;;1.75;0.88;;;18.40;79.30;;;;;;5042717;28;20159;-78
2022/10/05 13:56:41;;;;;;;5.85;1.85;;;18.40;79.30;;;;;;5049863;28;20064;-78
2022/10/05 13:59:37;;;;;;;2.13;1.17;;;18.40;79.30;;;;;;5033672;28;20029;-78